Time;durP1;ratioP1;P1;durP2;ratioP2;P2;SDS_P1;SDS_P2;PMS_P1;PMS_P2;Temp;Humidity;BMP_temperature;BMP_pressure;BME280_temperature;BME280_humidity;BME280_pressure;Samples;Min_cycle;Max_cycle;Signal;HPM_P1;HPM_P2
2022/10/26 04:23:03;;;;;;;2.92;1.83;;;;;;;12.13;100.00;100170.34;5089059;28;20420;-65
2022/10/26 04:25:29;;;;;;;2.78;1.52;;;;;;;12.18;100.00;100159.09;5089063;28;20043;-66
2022/10/26 04:27:54;;;;;;;1.70;1.30;;;;;;;12.18;100.00;100154.59;5088948;28;20049;-66
2022/10/26 04:30:20;;;;;;;2.72;1.60;;;;;;;12.18;100.00;100143.91;5087505;28;20045;-65
2022/10/26 04:32:45;;;;;;;3.13;1.50;;;;;;;12.19;100.00;100132.22;5089448;28;20036;-66
2022/10/26 04:35:11;;;;;;;1.58;1.10;;;;;;;12.19;100.00;100107.34;5088851;28;20036;-63
2022/10/26 04:37:36;;;;;;;2.40;1.63;;;;;;;12.19;100.00;100124.22;5088900;28;20040;-67
2022/10/26 04:40:02;;;;;;;4.47;2.15;;;;;;;12.20;100.00;100133.88;5088654;28;20044;-66
2022/10/26 04:42:30;;;;;;;1.48;1.30;;;;;;;12.20;100.00;100139.22;5088526;28;20059;-66
2022/10/26 04:44:55;;;;;;;2.42;1.60;;;;;;;12.18;100.00;100154.59;5088872;28;20090;-66
2022/10/26 04:47:20;;;;;;;3.00;1.58;;;;;;;12.19;100.00;100158.06;5088514;28;20435;-66
2022/10/26 04:49:46;;;;;;;3.30;1.40;;;;;;;12.18;100.00;100162.59;5088652;28;20047;-67
2022/10/26 04:52:11;;;;;;;2.08;1.45;;;;;;;12.23;100.00;100164.72;5088261;28;20079;-65
2022/10/26 04:54:37;;;;;;;1.73;1.60;;;;;;;12.27;100.00;100162.50;5088541;28;20051;-66
2022/10/26 04:57:02;;;;;;;2.13;1.23;;;;;;;12.29;100.00;100163.16;5088456;28;20059;-66
2022/10/26 04:59:27;;;;;;;1.60;1.35;;;;;;;12.26;100.00;100168.84;5088476;28;20032;-66
2022/10/26 05:01:53;;;;;;;3.78;2.03;;;;;;;12.30;100.00;100156.78;5088036;28;20405;-67
2022/10/26 05:04:18;;;;;;;1.63;1.27;;;;;;;12.30;100.00;100162.94;5088373;28;20476;-66
2022/10/26 05:06:43;;;;;;;2.53;1.48;;;;;;;12.30;100.00;100172.81;5088417;28;20109;-65
2022/10/26 05:09:09;;;;;;;1.75;1.25;;;;;;;12.31;100.00;100177.97;5088432;28;20040;-65
2022/10/26 05:11:34;;;;;;;1.95;1.40;;;;;;;12.32;100.00;100181.47;5087953;28;20095;-65
2022/10/26 05:14:00;;;;;;;2.03;1.45;;;;;;;12.34;100.00;100193.63;5088341;28;20149;-65
2022/10/26 05:16:25;;;;;;;6.65;1.77;;;;;;;12.35;100.00;100202.47;5088219;28;20052;-65
2022/10/26 05:18:50;;;;;;;2.80;1.48;;;;;;;12.34;100.00;100209.66;5088224;28;20146;-65
2022/10/26 05:21:18;;;;;;;1.50;1.15;;;;;;;12.36;100.00;100207.63;5087593;28;20037;-65
2022/10/26 05:23:50;;;;;;;2.63;1.63;;;;;;;12.39;100.00;100209.13;5088061;28;20040;-64
2022/10/26 05:26:16;;;;;;;2.28;1.58;;;;;;;12.41;100.00;100215.91;5087923;28;20114;-65
2022/10/26 05:28:41;;;;;;;2.67;1.40;;;;;;;12.44;100.00;100209.34;5087918;28;20166;-65
2022/10/26 05:31:06;;;;;;;1.77;1.38;;;;;;;12.44;100.00;100212.84;5087367;28;20108;-65
2022/10/26 05:33:32;;;;;;;2.05;1.50;;;;;;;12.45;100.00;100211.88;5078423;28;20435;-66
2022/10/26 05:35:57;;;;;;;1.45;1.13;;;;;;;12.35;100.00;100216.66;5074259;28;20047;-65
2022/10/26 05:38:22;;;;;;;2.25;1.40;;;;;;;12.38;100.00;100226.13;5074169;28;20486;-63
2022/10/26 05:40:53;;;;;;;1.63;1.40;;;;;;;12.37;100.00;100235.97;5073742;28;20040;-66
2022/10/26 05:43:20;;;;;;;1.88;1.30;;;;;;;12.34;100.00;100230.19;5074202;28;20115;-66
2022/10/26 05:45:45;;;;;;;3.75;1.48;;;;;;;12.38;100.00;100234.13;5074088;28;20036;-64
2022/10/26 05:48:11;;;;;;;3.15;1.60;;;;;;;12.38;100.00;100239.47;5074083;28;20051;-65
2022/10/26 05:50:37;;;;;;;2.20;1.80;;;;;;;12.38;100.00;100244.81;5073605;28;20040;-65
2022/10/26 05:53:02;;;;;;;5.50;1.67;;;;;;;12.38;100.00;100242.16;5074049;28;20044;-66
2022/10/26 05:55:28;;;;;;;1.60;1.38;;;;;;;12.41;100.00;100241.81;5073834;28;20488;-66
2022/10/26 05:57:53;;;;;;;2.80;1.63;;;;;;;12.40;100.00;100248.16;5073956;28;20477;-65
2022/10/26 06:00:24;;;;;;;7.05;1.48;;;;;;;12.40;100.00;100257.00;5073581;28;20055;-65
2022/10/26 06:03:11;;;;;;;1.42;1.33;;;;;;;12.43;100.00;100266.47;5073894;28;20036;-65
2022/10/26 06:05:58;;;;;;;3.28;1.52;;;;;;;12.42;100.00;100262.97;5073814;28;20119;-65
2022/10/26 06:08:26;;;;;;;2.60;1.90;;;;;;;12.43;100.00;100263.81;5072483;28;20094;-65
2022/10/26 06:10:52;;;;;;;;;;;;;;;12.45;100.00;100278.66;5073815;28;20040;-65
2022/10/26 06:13:18;;;;;;;3.13;1.53;;;;;;;12.46;100.00;100280.31;5073281;28;19975;-66
2022/10/26 06:15:50;;;;;;;2.80;1.52;;;;;;;12.43;100.00;100283.31;5073542;28;20037;-65
2022/10/26 06:18:38;;;;;;;1.80;1.50;;;;;;;12.45;100.00;100288.47;5073455;28;20032;-65
2022/10/26 06:21:22;;;;;;;2.35;1.45;;;;;;;12.50;100.00;100294.94;5073119;28;20036;-60
2022/10/26 06:24:10;;;;;;;2.72;1.33;;;;;;;12.50;100.00;100288.75;5073487;28;20538;-60
2022/10/26 06:26:51;;;;;;;1.77;1.40;;;;;;;12.55;100.00;100294.38;5072884;28;20658;-60
2022/10/26 06:29:30;;;;;;;4.20;1.65;;;;;;;12.53;100.00;100296.44;5073321;28;20098;-61
2022/10/26 06:31:56;;;;;;;2.50;1.73;;;;;;;12.50;100.00;100302.94;5072913;28;20041;-62
2022/10/26 06:34:26;;;;;;;3.60;1.70;;;;;;;12.49;100.00;100285.28;5073386;28;20027;-61
2022/10/26 06:36:52;;;;;;;2.75;1.70;;;;;;;12.50;100.00;100284.25;5073148;28;20119;-61
2022/10/26 06:39:19;;;;;;;1.42;1.33;;;;;;;12.55;100.00;100299.72;5073248;28;20079;-61
2022/10/26 06:41:44;;;;;;;1.10;1.00;;;;;;;12.53;100.00;100292.94;5072910;28;20032;-61
2022/10/26 06:44:19;;;;;;;2.17;1.30;;;;;;;12.58;100.00;100291.34;5072487;28;20105;-61
2022/10/26 06:46:53;;;;;;;2.40;1.50;;;;;;;12.60;100.00;100288.50;5073035;28;20486;-62
2022/10/26 06:49:33;;;;;;;2.05;1.50;;;;;;;12.58;100.00;100290.50;5072954;28;20111;-63
2022/10/26 06:51:59;;;;;;;2.63;1.77;;;;;;;12.61;100.00;100296.31;5072558;28;20032;-62
2022/10/26 06:54:36;;;;;;;5.35;1.77;;;;;;;12.62;100.00;100297.16;5072945;28;20033;-62
2022/10/26 06:57:02;;;;;;;4.97;1.58;;;;;;;12.67;100.00;100297.44;5072826;28;20079;-61
2022/10/26 06:59:37;;;;;;;2.58;1.73;;;;;;;12.71;100.00;100306.72;5071459;28;20064;-61
2022/10/26 07:02:02;;;;;;;2.42;1.60;;;;;;;12.72;100.00;100306.56;5072472;28;20389;-61
2022/10/26 07:04:28;;;;;;;2.65;1.67;;;;;;;12.75;100.00;100308.00;5071508;28;20136;-62
2022/10/26 07:06:55;;;;;;;2.60;1.33;;;;;;;12.76;100.00;100313.16;5071338;28;20044;-61
2022/10/26 07:09:21;;;;;;;1.75;1.63;;;;;;;12.80;100.00;100310.13;5071214;28;20485;-64
2022/10/26 07:11:46;;;;;;;2.28;1.60;;;;;;;12.83;100.00;100320.44;5072256;28;20066;-61
2022/10/26 07:14:12;;;;;;;2.15;1.40;;;;;;;12.87;100.00;100321.75;5071151;28;20028;-61
2022/10/26 07:16:37;;;;;;;2.17;1.35;;;;;;;12.92;100.00;100314.00;5072287;28;20495;-64
2022/10/26 07:19:03;;;;;;;3.33;1.85;;;;;;;12.94;100.00;100326.16;5072435;28;20039;-64
2022/10/26 07:21:28;;;;;;;2.53;1.40;;;;;;;12.95;100.00;100330.47;5072039;28;20028;-64
2022/10/26 07:23:55;;;;;;;2.38;1.40;;;;;;;12.99;100.00;100336.31;5071095;28;20070;-63
2022/10/26 07:26:21;;;;;;;3.03;1.50;;;;;;;13.01;100.00;100342.28;5072274;28;20036;-63
2022/10/26 07:28:49;;;;;;;2.78;1.77;;;;;;;13.01;100.00;100347.63;5072266;28;20089;-61
2022/10/26 07:31:15;;;;;;;3.38;1.65;;;;;;;13.01;100.00;100340.44;5071824;28;20036;-61
2022/10/26 07:33:41;;;;;;;2.90;1.80;;;;;;;13.09;100.00;100341.34;5072075;28;20074;-61
2022/10/26 07:36:09;;;;;;;2.70;1.88;;;;;;;13.13;100.00;100343.47;5072141;28;20507;-64
2022/10/26 07:38:35;;;;;;;5.43;1.92;;;;;;;13.17;100.00;100339.41;5072271;28;20402;-64
2022/10/26 07:41:01;;;;;;;2.33;1.40;;;;;;;13.22;100.00;100336.19;5071824;28;20090;-64
2022/10/26 07:43:26;;;;;;;3.70;1.70;;;;;;;13.28;100.00;100343.44;5070820;28;20111;-64
2022/10/26 07:45:52;;;;;;;5.47;1.50;;;;;;;13.33;100.00;100354.44;5071792;28;20041;-63
2022/10/26 07:48:17;;;;;;;1.77;1.40;;;;;;;13.37;100.00;100352.22;5072081;28;20044;-64
2022/10/26 07:50:43;;;;;;;4.25;2.22;;;;;;;13.42;100.00;100353.28;5071495;28;20470;-64
2022/10/26 07:53:08;;;;;;;2.00;1.67;;;;;;;13.41;100.00;100356.16;5072077;28;20465;-64
2022/10/26 07:55:33;;;;;;;3.25;1.63;;;;;;;13.50;100.00;100366.56;5071597;28;20072;-63
2022/10/26 07:57:59;;;;;;;2.50;1.73;;;;;;;13.56;100.00;100367.63;5071796;28;20123;-64
2022/10/26 08:00:24;;;;;;;3.28;1.75;;;;;;;13.63;100.00;100368.56;5071395;28;20115;-64
2022/10/26 08:02:50;;;;;;;2.13;1.38;;;;;;;13.69;100.00;100365.13;5071891;28;20110;-63
2022/10/26 08:05:16;;;;;;;2.85;1.60;;;;;;;13.81;100.00;100384.16;5071710;28;20076;-61
2022/10/26 08:07:43;;;;;;;2.65;1.48;;;;;;;13.84;100.00;100392.66;5071760;28;20040;-61
2022/10/26 08:10:09;;;;;;;3.87;1.90;;;;;;;13.97;100.00;100396.47;5071601;28;20033;-61
2022/10/26 08:12:35;;;;;;;1.42;1.20;;;;;;;14.05;100.00;100397.16;5071421;28;20341;-62
2022/10/26 08:15:00;;;;;;;2.38;1.50;;;;;;;14.12;100.00;100400.72;5071726;28;20083;-57
2022/10/26 08:17:27;;;;;;;2.50;1.75;;;;;;;14.23;100.00;100401.25;5071611;28;20052;-57
2022/10/26 08:19:53;;;;;;;2.35;1.60;;;;;;;14.28;100.00;100396.13;5071646;28;20431;-62
2022/10/26 08:22:18;;;;;;;1.38;1.20;;;;;;;14.33;100.00;100405.22;5071393;28;20037;-62
2022/10/26 08:24:45;;;;;;;2.40;1.50;;;;;;;14.48;100.00;100409.72;5071584;28;20071;-63
2022/10/26 08:27:13;;;;;;;2.72;1.77;;;;;;;14.59;100.00;100410.00;5071436;28;20040;-63
2022/10/26 08:29:39;;;;;;;2.08;1.60;;;;;;;14.66;100.00;100408.19;5071466;28;20044;-61
2022/10/26 08:32:04;;;;;;;5.13;1.58;;;;;;;14.73;100.00;100416.28;5071177;28;20029;-59
2022/10/26 08:34:30;;;;;;;1.85;1.48;;;;;;;14.79;100.00;100410.13;5071479;28;20036;-63
2022/10/26 08:36:55;;;;;;;2.25;1.52;;;;;;;14.90;100.00;100404.22;5071416;28;20067;-61
2022/10/26 08:39:20;;;;;;;1.60;1.30;;;;;;;14.98;100.00;100413.13;5071495;28;20072;-62
2022/10/26 08:41:52;;;;;;;1.77;1.50;;;;;;;15.02;100.00;100407.19;5070993;28;20041;-62
2022/10/26 08:44:36;;;;;;;2.15;1.45;;;;;;;15.10;100.00;100403.50;5071449;28;20451;-63
2022/10/26 08:47:19;;;;;;;2.22;1.63;;;;;;;15.20;100.00;100414.72;5071372;28;20039;-64
2022/10/26 08:49:49;;;;;;;2.50;1.40;;;;;;;15.33;100.00;100411.25;5070188;28;20039;-63
2022/10/26 08:52:20;;;;;;;5.03;1.48;;;;;;;15.44;100.00;100421.41;5071009;28;20036;-63
2022/10/26 08:54:51;;;;;;;2.17;1.50;;;;;;;15.52;100.00;100425.75;5071374;28;20032;-62
2022/10/26 08:57:25;;;;;;;3.35;1.88;;;;;;;15.60;100.00;100433.66;5071187;28;20036;-62
2022/10/26 09:00:06;;;;;;;2.53;1.80;;;;;;;15.71;100.00;100435.78;5071319;28;20047;-62
2022/10/26 09:02:32;;;;;;;2.97;1.48;;;;;;;15.78;100.00;100435.78;5071177;28;20368;-64
2022/10/26 09:04:58;;;;;;;2.10;1.50;;;;;;;15.89;100.00;100433.34;5071182;28;20027;-64
2022/10/26 09:07:43;;;;;;;1.38;1.20;;;;;;;16.08;100.00;100436.28;5071180;28;20043;-65
2022/10/26 09:10:31;;;;;;;2.55;1.20;;;;;;;16.34;100.00;100436.31;5074811;28;20039;-66
2022/10/26 09:13:18;;;;;;;;;;;;;;;16.53;100.00;100440.03;5075378;28;20119;-65
2022/10/26 09:16:02;;;;;;;3.58;1.40;;;;;;;16.87;100.00;100432.78;5075041;28;19912;-65
2022/10/26 09:19:00;;;;;;;2.03;1.40;;;;;;;17.01;100.00;100429.03;5074783;28;20040;-65
2022/10/26 09:21:47;;;;;;;3.53;1.20;;;;;;;17.09;100.00;100418.88;5074365;28;20072;-65
2022/10/26 09:24:29;;;;;;;2.35;1.70;;;;;;;17.41;100.00;100427.06;5074714;28;20028;-65
2022/10/26 09:27:04;;;;;;;1.75;1.30;;;;;;;17.63;98.89;100427.56;5073272;28;20036;-65
2022/10/26 09:29:35;;;;;;;2.05;1.13;;;;;;;18.04;93.77;100432.53;5074713;28;20500;-65
2022/10/26 09:32:03;;;;;;;2.08;1.25;;;;;;;18.32;93.31;100440.22;5074226;28;20401;-66
2022/10/26 09:34:41;;;;;;;2.90;1.20;;;;;;;18.72;90.56;100444.50;5074497;28;20119;-66
2022/10/26 09:37:23;;;;;;;2.13;1.20;;;;;;;19.04;88.19;100443.34;5074504;28;20414;-65
2022/10/26 09:40:24;;;;;;;1.20;1.10;;;;;;;19.27;86.86;100453.47;5074353;28;20040;-65
2022/10/26 09:43:15;;;;;;;3.30;1.27;;;;;;;19.44;86.68;100461.78;5072390;28;20098;-65
2022/10/26 09:45:47;;;;;;;3.65;1.33;;;;;;;19.61;87.11;100462.84;5074253;28;20044;-65
2022/10/26 09:48:25;;;;;;;2.03;1.10;;;;;;;19.67;84.63;100472.75;5074330;28;20040;-65
2022/10/26 09:50:51;;;;;;;1.60;1.02;;;;;;;20.02;83.34;100472.09;5073715;28;20371;-64
2022/10/26 09:53:17;;;;;;;1.23;0.90;;;;;;;20.46;80.46;100475.38;5074415;28;20040;-66
2022/10/26 09:55:45;;;;;;;1.38;0.85;;;;;;;20.89;77.75;100469.69;5073916;28;20044;-65
2022/10/26 09:58:20;;;;;;;1.40;0.90;;;;;;;21.43;76.65;100473.06;5074116;28;20079;-65
2022/10/26 10:00:46;;;;;;;2.33;0.93;;;;;;;22.26;70.00;100471.69;5073754;28;20047;-65
2022/10/26 10:03:23;;;;;;;1.55;1.08;;;;;;;22.88;66.79;100485.22;5073986;28;20040;-66
2022/10/26 10:05:48;;;;;;;1.73;1.08;;;;;;;23.14;66.15;100482.88;5072578;28;20036;-65
2022/10/26 10:08:15;;;;;;;1.13;0.80;;;;;;;22.58;64.68;100490.97;5072571;28;20071;-66
2022/10/26 10:11:11;;;;;;;0.77;0.70;;;;;;;22.23;67.05;100493.06;5072160;28;20072;-66
2022/10/26 10:13:39;;;;;;;2.87;1.10;;;;;;;22.16;67.44;100487.78;5064937;28;20132;-65
2022/10/26 10:16:07;;;;;;;1.58;1.13;;;;;;;21.64;69.36;100498.69;5073669;28;20047;-65
2022/10/26 10:18:34;;;;;;;3.78;1.30;;;;;;;21.67;69.45;100485.47;5073591;28;20407;-64
2022/10/26 10:21:00;;;;;;;1.67;1.00;;;;;;;21.72;69.76;100500.22;5073202;28;20086;-64
2022/10/26 10:23:51;;;;;;;1.30;0.88;;;;;;;22.33;68.92;100491.34;5072326;28;20481;-66
2022/10/26 10:26:17;;;;;;;2.13;1.40;;;;;;;23.03;64.31;100492.78;5064149;28;20098;-66
2022/10/26 10:28:55;;;;;;;3.35;1.13;;;;;;;22.80;63.60;100498.38;5071058;28;20040;-66
2022/10/26 10:31:29;;;;;;;2.92;1.10;;;;;;;22.38;64.73;100510.44;5073442;28;20036;-64
2022/10/26 10:33:55;;;;;;;4.70;1.38;;;;;;;22.08;66.92;100507.97;5073449;28;20036;-64
2022/10/26 10:36:24;;;;;;;3.63;1.70;;;;;;;21.80;68.42;100506.06;5073254;28;20041;-63
2022/10/26 10:38:51;;;;;;;2.42;1.30;;;;;;;21.56;68.92;100520.75;5073171;28;20041;-65
2022/10/26 10:41:35;;;;;;;2.60;1.20;;;;;;;21.33;70.47;100521.63;5072864;28;20032;-63
2022/10/26 10:44:21;;;;;;;4.88;1.58;;;;;;;21.10;71.52;100517.81;5073135;28;20569;-65
2022/10/26 10:46:46;;;;;;;2.42;1.15;;;;;;;20.98;71.64;100517.00;5072915;28;20068;-64
2022/10/26 10:49:24;;;;;;;3.90;1.13;;;;;;;20.87;72.47;100523.25;5072649;28;20438;-64
2022/10/26 10:51:50;;;;;;;2.05;1.30;;;;;;;20.82;72.25;100523.94;5072500;28;20094;-63
2022/10/26 10:54:30;;;;;;;1.58;1.10;;;;;;;20.85;71.14;100530.75;5072793;28;20128;-65
2022/10/26 10:57:15;;;;;;;3.50;1.30;;;;;;;21.25;70.09;100533.59;5072687;28;20037;-64
2022/10/26 10:59:44;;;;;;;3.75;1.20;;;;;;;21.76;66.11;100532.00;5072733;28;20457;-64
2022/10/26 11:02:10;;;;;;;2.95;0.98;;;;;;;22.31;65.30;100530.66;5072739;28;20440;-64
2022/10/26 11:04:41;;;;;;;3.47;1.30;;;;;;;22.89;62.24;100530.34;5072695;28;20090;-60
2022/10/26 11:07:10;;;;;;;4.72;1.48;;;;;;;23.22;62.86;100534.91;5072482;28;20102;-64
2022/10/26 11:09:40;;;;;;;3.40;1.25;;;;;;;23.46;60.06;100535.50;5057761;28;20032;-64
2022/10/26 11:12:17;;;;;;;3.50;1.00;;;;;;;23.31;60.97;100537.19;5052098;28;20442;-64
2022/10/26 11:14:49;;;;;;;;;;;;;;;22.87;60.96;100542.50;5052956;28;20072;-63
2022/10/26 11:18:03;;;;;;;3.00;1.20;;;;;;;22.88;61.17;100542.25;5052425;28;19920;-64
2022/10/26 11:20:32;;;;;;;4.80;1.50;;;;;;;22.71;62.95;100538.69;5006170;28;20462;-65
2022/10/26 11:23:08;;;;;;;1.38;0.98;;;;;;;22.66;63.25;100533.16;5052320;28;20025;-65
2022/10/26 11:25:40;;;;;;;2.65;1.15;;;;;;;22.55;62.56;100534.88;5052250;28;20186;-65
2022/10/26 11:28:21;;;;;;;5.70;1.60;;;;;;;22.19;63.40;100541.56;5052231;28;20363;-64
2022/10/26 11:30:56;;;;;;;2.22;1.10;;;;;;;22.07;62.90;100530.72;5051220;28;20044;-64
2022/10/26 11:33:29;;;;;;;4.47;1.27;;;;;;;21.95;63.07;100538.09;5052183;28;20045;-62
2022/10/26 11:36:01;;;;;;;3.47;1.40;;;;;;;21.92;63.05;100546.72;5052128;28;20112;-62
2022/10/26 11:38:37;;;;;;;1.77;1.30;;;;;;;22.13;62.71;100545.25;5052005;28;20146;-64
2022/10/26 11:41:10;;;;;;;1.98;0.93;;;;;;;22.37;61.72;100541.38;5051758;28;20068;-64
2022/10/26 11:43:47;;;;;;;4.15;1.58;;;;;;;23.26;58.96;100533.31;5052132;28;20108;-62
2022/10/26 11:46:25;;;;;;;5.20;1.63;;;;;;;23.60;56.03;100546.81;5051876;28;20090;-63
2022/10/26 11:49:03;;;;;;;2.25;1.10;;;;;;;23.77;55.77;100536.75;5050637;28;20413;-64
2022/10/26 11:51:28;;;;;;;2.55;1.13;;;;;;;24.38;54.15;100542.06;5051335;28;20033;-62
2022/10/26 11:53:57;;;;;;;3.90;1.10;;;;;;;25.03;51.42;100543.72;5051835;28;20470;-61
2022/10/26 11:56:36;;;;;;;2.58;1.20;;;;;;;25.62;50.64;100540.00;5051770;28;20123;-65
2022/10/26 11:59:03;;;;;;;2.33;1.10;;;;;;;26.24;47.99;100548.16;5051596;28;20045;-63
2022/10/26 12:01:30;;;;;;;2.35;1.35;;;;;;;26.66;47.65;100541.69;5051470;28;20033;-64
2022/10/26 12:03:58;;;;;;;2.72;1.30;;;;;;;27.37;46.66;100540.00;5051692;28;20438;-63
2022/10/26 12:06:28;;;;;;;3.60;1.20;;;;;;;27.54;44.24;100545.97;5051590;28;20405;-63
2022/10/26 12:09:03;;;;;;;5.05;1.20;;;;;;;27.36;44.21;100541.09;5051608;28;20622;-64
2022/10/26 12:11:51;;;;;;;2.50;1.15;;;;;;;27.09;45.79;100541.44;5051192;28;20163;-65
2022/10/26 12:14:41;;;;;;;2.85;1.20;;;;;;;27.52;44.42;100542.72;5051539;28;20037;-64
2022/10/26 12:17:20;;;;;;;2.40;1.40;;;;;;;27.10;45.58;100543.88;5057218;28;20111;-65
2022/10/26 12:19:49;;;;;;;3.83;1.20;;;;;;;27.05;45.11;100552.91;5071425;28;20466;-66
2022/10/26 12:22:28;;;;;;;3.97;1.30;;;;;;;26.86;46.46;100557.25;5071073;28;20028;-67
2022/10/26 12:25:07;;;;;;;4.38;1.35;;;;;;;26.70;46.02;100556.44;5068119;28;20039;-65
2022/10/26 12:27:38;;;;;;;6.38;2.50;;;;;;;26.74;46.45;100557.56;5051594;28;20132;-66
2022/10/26 12:30:16;;;;;;;3.67;1.60;;;;;;;26.65;46.54;100552.88;5051352;28;20040;-66
2022/10/26 12:32:46;;;;;;;2.97;1.48;;;;;;;26.67;46.29;100559.75;5051376;28;20379;-65
2022/10/26 12:35:37;;;;;;;6.57;1.92;;;;;;;26.92;46.21;100552.63;5051247;28;20103;-65
2022/10/26 12:38:24;;;;;;;1.52;1.25;;;;;;;26.67;46.48;100561.63;5051447;28;20429;-66
2022/10/26 12:41:11;;;;;;;5.82;1.40;;;;;;;26.07;46.44;100574.84;5051140;28;20056;-65
2022/10/26 12:43:39;;;;;;;2.17;1.20;;;;;;;25.49;47.87;100568.56;5053295;28;20405;-62
2022/10/26 12:46:13;;;;;;;6.50;1.83;;;;;;;25.31;49.80;100567.13;5065795;28;20036;-62
2022/10/26 12:48:47;;;;;;;4.95;1.45;;;;;;;25.27;49.62;100574.16;5066188;28;21343;-65
2022/10/26 12:51:20;;;;;;;3.65;1.65;;;;;;;24.56;50.98;100570.84;5062745;28;20175;-62
2022/10/26 12:54:04;;;;;;;5.55;1.67;;;;;;;24.49;51.72;100570.22;5055205;28;20437;-64
2022/10/26 12:56:40;;;;;;;4.75;1.63;;;;;;;24.28;52.50;100564.53;5055134;28;20029;-63
2022/10/26 12:59:18;;;;;;;5.53;2.08;;;;;;;23.89;53.64;100574.72;5055159;28;20151;-66
2022/10/26 13:01:52;;;;;;;3.03;1.50;;;;;;;23.81;53.27;100575.16;5054814;28;20086;-64
2022/10/26 13:04:23;;;;;;;5.20;1.65;;;;;;;23.77;54.98;100571.28;5060429;28;20055;-65
2022/10/26 13:07:17;;;;;;;3.42;1.50;;;;;;;23.63;56.15;100575.47;5070535;28;20426;-65
2022/10/26 13:09:56;;;;;;;8.98;2.10;;;;;;;23.35;56.34;100582.66;5074818;28;20067;-65
2022/10/26 13:12:23;;;;;;;2.75;1.55;;;;;;;23.35;55.14;100576.41;5074772;28;20033;-64
2022/10/26 13:14:56;;;;;;;6.73;1.97;;;;;;;23.11;55.37;100579.28;5074823;28;20085;-65
2022/10/26 13:17:25;;;;;;;5.55;1.60;;;;;;;23.11;57.25;100576.56;5073488;28;20105;-64
2022/10/26 13:19:59;;;;;;;8.10;2.10;;;;;;;23.20;57.86;100580.50;5071506;28;20044;-64
2022/10/26 13:22:25;;;;;;;7.00;1.90;;;;;;;23.06;56.88;100578.38;5074417;28;20486;-65
2022/10/26 13:24:54;;;;;;;6.13;1.50;;;;;;;23.09;57.44;100573.28;5074700;28;20039;-64
2022/10/26 13:27:38;;;;;;;2.75;1.33;;;;;;;23.09;57.92;100572.47;5073102;28;20405;-65
2022/10/26 13:30:03;;;;;;;5.45;2.10;;;;;;;23.10;57.93;100574.13;5074420;28;20047;-63
2022/10/26 13:32:32;;;;;;;4.25;1.80;;;;;;;23.06;58.76;100572.94;5074367;28;20036;-64
2022/10/26 13:35:00;;;;;;;5.88;2.40;;;;;;;23.12;59.08;100583.66;5074452;28;20072;-64
2022/10/26 13:37:30;;;;;;;8.18;1.80;;;;;;;22.91;59.44;100581.69;5074423;28;20045;-64
2022/10/26 13:39:56;;;;;;;6.72;1.80;;;;;;;22.78;59.42;100577.38;5074182;28;20040;-64
2022/10/26 13:42:38;;;;;;;3.78;1.40;;;;;;;22.87;58.53;100575.91;5064664;28;20044;-65
2022/10/26 13:45:11;;;;;;;5.43;1.30;;;;;;;22.71;57.44;100576.69;5064250;28;20036;-65
2022/10/26 13:48:00;;;;;;;6.90;1.23;;;;;;;22.75;58.74;100580.56;5063793;28;20051;-63
2022/10/26 13:50:31;;;;;;;4.75;1.63;;;;;;;22.68;59.31;100588.84;5064262;28;20037;-64
2022/10/26 13:53:14;;;;;;;3.72;1.70;;;;;;;22.75;59.05;100583.28;5063294;28;20128;-65
2022/10/26 13:55:53;;;;;;;2.78;1.70;;;;;;;22.71;59.97;100591.09;5063119;28;20459;-65
2022/10/26 13:58:22;;;;;;;6.32;2.22;;;;;;;22.62;58.58;100583.59;5063474;28;20036;-63
2022/10/26 14:01:11;;;;;;;4.22;1.52;;;;;;;22.67;58.80;100594.53;5062476;28;20037;-65
2022/10/26 14:03:37;;;;;;;6.88;2.00;;;;;;;22.57;60.16;100576.19;5063078;28;20044;-63
2022/10/26 14:06:12;;;;;;;5.70;1.70;;;;;;;22.57;60.35;100592.47;5063329;28;20028;-64
2022/10/26 14:08:40;;;;;;;5.07;1.92;;;;;;;22.66;60.56;100601.03;5053888;28;20056;-65
2022/10/26 14:11:11;;;;;;;3.13;1.60;;;;;;;22.63;62.44;100599.66;5053368;28;20041;-63
2022/10/26 14:13:37;;;;;;;4.53;1.67;;;;;;;22.64;62.64;100603.19;5053815;28;20058;-64
2022/10/26 14:16:07;;;;;;;5.93;1.70;;;;;;;22.56;60.02;100614.41;5053610;28;20453;-64
2022/10/26 14:18:34;;;;;;;6.00;1.80;;;;;;;22.60;60.86;100612.88;5053680;28;20060;-65
2022/10/26 14:21:05;;;;;;;5.03;1.92;;;;;;;22.40;61.01;100606.00;5052092;28;20040;-64
2022/10/26 14:23:48;;;;;;;5.43;1.75;;;;;;;22.42;62.12;100619.31;5053628;28;20462;-65
2022/10/26 14:26:37;;;;;;;2.80;1.70;;;;;;;22.45;61.07;100619.69;5053438;28;20120;-63
2022/10/26 14:29:03;;;;;;;5.28;2.20;;;;;;;22.29;62.32;100620.44;5053538;28;20514;-64
2022/10/26 14:31:31;;;;;;;7.10;2.17;;;;;;;22.34;64.24;100625.97;5053061;28;20099;-64
2022/10/26 14:33:59;;;;;;;3.92;2.08;;;;;;;22.31;63.81;100625.63;5053331;28;20045;-64
2022/10/26 14:36:31;;;;;;;7.05;2.25;;;;;;;22.24;63.13;100633.09;5053380;28;20029;-63
2022/10/26 14:39:01;;;;;;;3.88;1.83;;;;;;;22.17;63.73;100630.53;5053293;28;20555;-64
2022/10/26 14:41:28;;;;;;;3.08;1.83;;;;;;;22.14;63.81;100623.66;5052879;28;20044;-64
2022/10/26 14:43:56;;;;;;;3.90;1.63;;;;;;;22.08;64.02;100630.03;5053201;28;20493;-62
2022/10/26 14:46:22;;;;;;;5.45;1.67;;;;;;;22.01;63.82;100637.47;5053058;28;20036;-63
2022/10/26 14:48:55;;;;;;;3.63;1.65;;;;;;;21.97;64.63;100638.19;5053245;28;20045;-62
2022/10/26 14:51:28;;;;;;;8.45;2.30;;;;;;;21.86;64.77;100629.03;5052629;28;20052;-63
2022/10/26 14:53:57;;;;;;;4.05;1.52;;;;;;;21.76;64.78;100637.75;5053130;28;20394;-62
2022/10/26 14:56:34;;;;;;;4.72;1.80;;;;;;;21.74;64.53;100637.16;5052935;28;20075;-63
2022/10/26 14:59:10;;;;;;;4.38;2.00;;;;;;;21.71;64.57;100637.63;5052933;28;20032;-64
2022/10/26 15:01:55;;;;;;;5.03;2.08;;;;;;;21.68;65.06;100636.22;5052616;28;20037;-64
2022/10/26 15:04:55;;;;;;;4.38;1.80;;;;;;;21.69;66.22;100642.47;5052758;28;20607;-63
2022/10/26 15:07:20;;;;;;;3.78;1.73;;;;;;;21.63;66.32;100633.38;5052058;28;20043;-63
2022/10/26 15:09:46;;;;;;;11.80;3.45;;;;;;;21.56;66.80;100646.22;5052646;28;20127;-63
2022/10/26 15:12:31;;;;;;;5.97;2.70;;;;;;;21.54;67.24;100644.84;5052400;28;20029;-62
2022/10/26 15:15:09;;;;;;;4.82;2.45;;;;;;;21.49;66.24;100644.72;5052538;28;20130;-64
2022/10/26 15:17:41;;;;;;;6.25;2.20;;;;;;;21.44;66.60;100653.53;5052492;28;20378;-64
2022/10/26 15:20:15;;;;;;;7.03;2.78;;;;;;;21.40;66.69;100653.19;5052078;28;20048;-64
2022/10/26 15:22:42;;;;;;;5.30;2.05;;;;;;;21.35;68.01;100650.34;5052495;28;20029;-64
2022/10/26 15:25:19;;;;;;;5.20;2.85;;;;;;;21.34;67.33;100654.13;5052255;28;20090;-63
2022/10/26 15:27:48;;;;;;;4.38;1.92;;;;;;;21.29;68.25;100662.13;5052315;28;20048;-64
2022/10/26 15:30:24;;;;;;;4.75;2.03;;;;;;;21.25;69.37;100657.38;5050501;28;20103;-63
2022/10/26 15:32:51;;;;;;;4.10;1.88;;;;;;;21.20;69.51;100655.38;5052010;28;20106;-63
2022/10/26 15:35:16;;;;;;;6.43;2.17;;;;;;;21.19;69.73;100661.00;5052016;28;20044;-62
2022/10/26 15:37:42;;;;;;;4.85;1.90;;;;;;;21.13;70.37;100665.50;5050664;28;20045;-63
2022/10/26 15:40:08;;;;;;;10.45;2.72;;;;;;;21.05;71.31;100671.22;5051798;28;20025;-63
2022/10/26 15:42:40;;;;;;;3.85;2.17;;;;;;;20.98;72.90;100660.50;5051872;28;20397;-61
2022/10/26 15:45:18;;;;;;;3.72;2.05;;;;;;;20.93;73.50;100667.66;5051898;28;20128;-63
2022/10/26 15:47:44;;;;;;;7.00;2.63;;;;;;;20.87;74.91;100664.03;5051778;28;20039;-63
2022/10/26 15:50:21;;;;;;;5.72;2.28;;;;;;;20.75;75.30;100673.97;5051588;28;20128;-62
2022/10/26 15:52:47;;;;;;;5.55;2.28;;;;;;;20.65;76.17;100676.41;5051751;28;20037;-63
2022/10/26 15:55:12;;;;;;;7.07;2.75;;;;;;;20.57;76.19;100682.97;5050273;28;20755;-63
2022/10/26 15:57:38;;;;;;;5.80;2.30;;;;;;;20.50;78.98;100684.94;5051592;28;20049;-63
2022/10/26 16:00:05;;;;;;;6.82;2.63;;;;;;;20.42;77.43;100685.22;5051534;28;20041;-63
2022/10/26 16:02:33;;;;;;;5.00;2.28;;;;;;;20.19;79.52;100678.59;5051503;28;20056;-63
2022/10/26 16:04:58;;;;;;;6.75;1.92;;;;;;;20.01;82.19;100684.81;5051576;28;20040;-63